Time;durP1;ratioP1;P1;durP2;ratioP2;P2;SDS_P1;SDS_P2;PMS_P1;PMS_P2;Temp;Humidity;BMP_temperature;BMP_pressure;BME280_temperature;BME280_humidity;BME280_pressure;Samples;Min_cycle;Max_cycle;Signal;HPM_P1;HPM_P2
2021/12/08 00:01:18;;;;;;;11.48;3.63;;;6.80;91.10;;;;;;5042228;28;20037;-81
2021/12/08 00:03:45;;;;;;;7.18;3.67;;;6.70;91.00;;;;;;5046955;28;20041;-82
2021/12/08 00:06:13;;;;;;;10.18;3.85;;;6.60;91.10;;;;;;5046164;28;20064;-82
2021/12/08 00:08:46;;;;;;;12.70;4.00;;;6.60;91.10;;;;;;5038859;28;20087;-86
2021/12/08 00:14:00;;;;;;;12.65;3.40;;;6.60;91.20;;;;;;5030576;28;20399;-82
2021/12/08 00:16:28;;;;;;;12.32;5.32;;;6.60;91.10;;;;;;5043899;28;20060;-83
2021/12/08 00:18:58;;;;;;;10.80;3.53;;;6.60;91.00;;;;;;5045303;28;20026;-82
2021/12/08 00:21:27;;;;;;;10.25;3.30;;;6.60;90.90;;;;;;5025317;28;20045;-82
2021/12/08 00:23:54;;;;;;;10.50;3.10;;;6.60;90.90;;;;;;5034386;28;20037;-84
2021/12/08 00:26:20;;;;;;;11.63;3.40;;;6.70;90.70;;;;;;5042588;28;20324;-80
2021/12/08 00:28:46;;;;;;;13.27;3.40;;;6.70;90.40;;;;;;5027706;28;20475;-85
2021/12/08 00:31:12;;;;;;;9.75;2.92;;;6.70;90.10;;;;;;5027863;28;20049;-85
2021/12/08 00:33:38;;;;;;;10.88;3.45;;;6.70;89.80;;;;;;5043357;28;20022;-84
2021/12/08 00:36:10;;;;;;;14.90;4.32;;;6.70;89.60;;;;;;5046298;28;20060;-83
2021/12/08 00:38:36;;;;;;;9.73;3.20;;;6.70;89.50;;;;;;5047846;28;20097;-83
2021/12/08 00:41:02;;;;;;;9.88;2.88;;;6.60;89.40;;;;;;5045153;28;20053;-83
2021/12/08 00:43:28;;;;;;;11.90;2.78;;;6.60;89.20;;;;;;5046475;28;20237;-85
2021/12/08 00:45:54;;;;;;;10.57;3.20;;;6.60;89.30;;;;;;5042167;28;20033;-81
2021/12/08 00:48:21;;;;;;;11.57;3.75;;;6.60;89.30;;;;;;5042662;28;20070;-82
2021/12/08 00:50:48;;;;;;;13.38;3.17;;;6.60;89.40;;;;;;5039950;28;20093;-87
2021/12/08 00:53:14;;;;;;;11.40;3.35;;;6.60;89.30;;;;;;5040043;28;20093;-83
2021/12/08 00:55:40;;;;;;;9.30;2.80;;;6.60;89.20;;;;;;5043292;28;20048;-83
2021/12/08 00:58:06;;;;;;;12.27;3.03;;;6.60;89.20;;;;;;5047338;28;20029;-83
2021/12/08 01:00:42;;;;;;;14.23;3.63;;;6.60;89.30;;;;;;5048555;28;20060;-83
2021/12/08 01:03:09;;;;;;;10.32;2.80;;;6.60;89.40;;;;;;5046017;28;20042;-82
2021/12/08 01:05:43;;;;;;;10.25;2.95;;;6.60;89.50;;;;;;5041355;28;20041;-84
2021/12/08 01:08:09;;;;;;;14.60;3.30;;;6.60;89.40;;;;;;5045871;28;20029;-81
2021/12/08 01:10:36;;;;;;;10.90;3.10;;;6.60;89.30;;;;;;5043930;28;20036;-81
2021/12/08 01:13:08;;;;;;;12.20;3.15;;;6.60;89.10;;;;;;5038886;28;20054;-82
2021/12/08 01:15:35;;;;;;;9.70;3.38;;;6.60;89.00;;;;;;5047078;28;20053;-83
2021/12/08 01:18:01;;;;;;;12.20;3.15;;;6.60;88.90;;;;;;5046925;28;20022;-76
2021/12/08 01:20:27;;;;;;;11.45;3.35;;;6.50;89.00;;;;;;5046770;28;20153;-83
2021/12/08 01:22:52;;;;;;;17.98;4.15;;;6.40;88.90;;;;;;5048605;28;20045;-86
2021/12/08 01:25:19;;;;;;;13.40;3.92;;;6.40;88.80;;;;;;5047629;28;20037;-83
2021/12/08 01:27:45;;;;;;;10.68;3.10;;;6.30;88.80;;;;;;5045273;28;20476;-84
2021/12/08 01:30:11;;;;;;;10.45;3.13;;;6.30;88.70;;;;;;5041317;28;20033;-82
2021/12/08 01:32:37;;;;;;;16.85;4.05;;;6.20;88.70;;;;;;5046950;28;20044;-81
2021/12/08 01:35:05;;;;;;;10.70;3.20;;;6.10;88.70;;;;;;5047556;28;20045;-83
2021/12/08 01:37:30;;;;;;;12.73;4.10;;;6.10;88.70;;;;;;5047181;28;20048;-88
2021/12/08 01:39:56;;;;;;;13.73;3.60;;;6.10;88.70;;;;;;5044456;28;20053;-82
2021/12/08 01:42:34;;;;;;;12.65;3.20;;;6.10;88.50;;;;;;5045545;28;20087;-83
2021/12/08 01:47:44;;;;;;;10.32;2.80;;;6.10;88.50;;;;;;5038568;28;20076;-84
2021/12/08 01:50:10;;;;;;;9.90;3.05;;;6.00;88.50;;;;;;5047201;28;20030;-83
2021/12/08 01:52:37;;;;;;;11.73;3.60;;;6.00;88.40;;;;;;5046499;28;20029;-82
2021/12/08 01:55:04;;;;;;;9.85;2.95;;;6.00;88.40;;;;;;5047175;28;20094;-81
2021/12/08 01:57:29;;;;;;;11.00;3.20;;;6.00;88.40;;;;;;5040212;28;20061;-81
2021/12/08 01:59:55;;;;;;;9.82;3.10;;;5.90;88.50;;;;;;5043557;28;20251;-84
2021/12/08 02:02:21;;;;;;;9.93;2.88;;;5.90;88.50;;;;;;5045369;28;20065;-83
2021/12/08 02:04:46;;;;;;;11.23;2.75;;;5.90;88.40;;;;;;5043055;28;20045;-85
2021/12/08 02:07:12;;;;;;;10.20;2.72;;;5.80;88.40;;;;;;5045025;28;20061;-82
2021/12/08 02:09:38;;;;;;;12.68;2.95;;;5.80;88.40;;;;;;5042239;28;20172;-82
2021/12/08 02:12:04;;;;;;;9.15;2.40;;;5.80;88.40;;;;;;5046842;28;20029;-82
2021/12/08 02:14:32;;;;;;;11.07;3.28;;;5.80;88.30;;;;;;5041524;28;20089;-82
2021/12/08 02:16:57;;;;;;;9.18;2.50;;;5.70;88.20;;;;;;5026682;28;20047;-83
2021/12/08 02:19:23;;;;;;;10.13;3.13;;;5.70;88.00;;;;;;5045478;28;20021;-84
2021/12/08 02:21:52;;;;;;;8.75;2.50;;;5.70;87.80;;;;;;5046059;28;20036;-85
2021/12/08 02:24:19;;;;;;;9.15;2.15;;;5.80;87.80;;;;;;5039923;28;20048;-83
2021/12/08 02:26:47;;;;;;;9.93;2.63;;;5.70;87.50;;;;;;5030359;28;20069;-81
2021/12/08 02:29:20;;;;;;;7.38;2.13;;;5.70;87.30;;;;;;5035068;28;20049;-84
2021/12/08 02:31:55;;;;;;;8.23;2.85;;;5.70;87.20;;;;;;5043635;28;20044;-86
2021/12/08 02:48:04;;;;;;;12.10;3.25;;;5.70;86.70;;;;;;5045589;28;20068;-83
2021/12/08 02:50:34;;;;;;;6.88;2.10;;;5.60;86.60;;;;;;5046796;28;20057;-83
2021/12/08 02:53:01;;;;;;;10.52;2.30;;;5.60;86.50;;;;;;5042922;28;20357;-85
2021/12/08 02:55:28;;;;;;;6.45;2.20;;;5.60;86.50;;;;;;5044421;28;20044;-85
2021/12/08 02:57:55;;;;;;;8.00;2.60;;;5.60;86.30;;;;;;5047111;28;20027;-84
2021/12/08 03:00:25;;;;;;;13.07;3.00;;;5.60;86.30;;;;;;5044212;28;20037;-85
2021/12/08 03:02:54;;;;;;;6.63;2.25;;;5.60;86.30;;;;;;5045319;28;20336;-88
2021/12/08 03:05:20;;;;;;;9.82;2.58;;;5.50;86.50;;;;;;5036484;28;20033;-85
2021/12/08 03:07:46;;;;;;;12.13;2.63;;;5.60;86.50;;;;;;5046673;28;20033;-85
2021/12/08 03:10:15;;;;;;;10.38;2.20;;;5.60;86.40;;;;;;5043703;28;20051;-82
2021/12/08 03:12:42;;;;;;;7.47;2.05;;;5.70;86.30;;;;;;5047277;28;20049;-82
2021/12/08 03:15:09;;;;;;;9.80;2.70;;;5.70;85.90;;;;;;5045406;28;20034;-82
2021/12/08 03:17:35;;;;;;;10.98;2.58;;;5.60;85.80;;;;;;5050425;28;20033;-85
2021/12/08 03:20:08;;;;;;;11.77;2.58;;;5.60;85.90;;;;;;5047370;28;20067;-77
2021/12/08 03:22:42;;;;;;;8.82;2.38;;;5.60;85.80;;;;;;5047566;28;20029;-79
2021/12/08 03:25:11;;;;;;;8.85;2.30;;;5.60;86.00;;;;;;5049543;28;20756;-80
2021/12/08 03:27:44;;;;;;;10.80;2.60;;;5.60;86.10;;;;;;5035597;28;20030;-87
2021/12/08 03:30:18;;;;;;;10.30;2.65;;;5.60;86.10;;;;;;5048459;28;20392;-88
2021/12/08 03:32:44;;;;;;;11.43;2.08;;;5.60;86.10;;;;;;5048440;28;20029;-84
2021/12/08 03:35:14;;;;;;;8.80;2.38;;;5.60;86.10;;;;;;5032716;28;20081;-88
2021/12/08 03:37:44;;;;;;;11.38;2.13;;;5.50;86.20;;;;;;5032466;28;20042;-85
2021/12/08 03:40:19;;;;;;;8.75;2.40;;;5.50;86.30;;;;;;5044061;28;20044;-83
2021/12/08 03:42:47;;;;;;;12.30;2.33;;;5.40;86.30;;;;;;5047501;28;20089;-84
2021/12/08 03:45:32;;;;;;;13.35;2.42;;;5.40;86.20;;;;;;5027832;28;20034;-81
2021/12/08 03:48:03;;;;;;;11.25;2.58;;;5.40;86.20;;;;;;5048001;28;20052;-83
2021/12/08 03:50:36;;;;;;;12.63;2.92;;;5.40;86.20;;;;;;5035414;28;20057;-82
2021/12/08 03:53:02;;;;;;;11.38;3.00;;;5.30;86.30;;;;;;5033014;28;20034;-77
2021/12/08 03:55:28;;;;;;;10.63;2.53;;;5.20;86.40;;;;;;5047400;28;20034;-83
2021/12/08 03:57:54;;;;;;;13.00;2.60;;;5.20;86.40;;;;;;5048599;28;20038;-82
2021/12/08 04:00:25;;;;;;;9.32;2.28;;;5.20;86.30;;;;;;5028774;28;20065;-85
2021/12/08 04:02:52;;;;;;;10.45;2.78;;;5.10;86.40;;;;;;5026587;28;20045;-83
2021/12/08 04:05:31;;;;;;;12.95;2.47;;;5.10;86.50;;;;;;5044401;28;20025;-88
2021/12/08 04:08:02;;;;;;;12.02;2.85;;;5.10;86.60;;;;;;5047622;28;20048;-84
2021/12/08 04:10:28;;;;;;;11.23;3.00;;;5.10;86.60;;;;;;5044932;28;20029;-83
2021/12/08 04:12:55;;;;;;;10.93;2.45;;;5.10;86.70;;;;;;5047871;28;20080;-83
2021/12/08 04:15:23;;;;;;;11.13;2.40;;;5.10;86.70;;;;;;5046847;28;20049;-82
2021/12/08 04:17:51;;;;;;;12.65;2.97;;;5.10;86.70;;;;;;5046854;28;20044;-84
2021/12/08 04:20:27;;;;;;;15.48;3.35;;;5.10;86.90;;;;;;5036963;28;20037;-83
2021/12/08 04:22:56;;;;;;;14.45;3.17;;;5.10;86.90;;;;;;5043674;28;20119;-81
2021/12/08 04:25:31;;;;;;;15.77;3.22;;;5.10;87.10;;;;;;5044556;28;20042;-85
2021/12/08 04:28:00;;;;;;;13.13;2.72;;;5.00;87.10;;;;;;5046879;28;20029;-84
2021/12/08 04:30:52;;;;;;;17.63;3.13;;;5.10;87.00;;;;;;5042211;28;20052;-86
2021/12/08 04:33:19;;;;;;;13.15;2.97;;;5.10;87.00;;;;;;5044122;28;20033;-83
2021/12/08 04:35:47;;;;;;;14.35;2.80;;;5.10;86.80;;;;;;5047872;28;20106;-84
2021/12/08 04:38:24;;;;;;;11.00;3.03;;;5.10;86.80;;;;;;5034046;28;20668;-82
2021/12/08 04:41:03;;;;;;;9.73;2.53;;;5.10;86.70;;;;;;5043669;28;20044;-83
2021/12/08 04:44:10;;;;;;;12.63;2.88;;;5.10;86.90;;;;;;5047216;28;20040;-84
2021/12/08 04:49:25;;;;;;;13.95;3.25;;;5.10;87.10;;;;;;5052217;28;20049;-81
2021/12/08 04:51:59;;;;;;;9.73;2.60;;;5.10;87.10;;;;;;5049298;28;20047;-84
2021/12/08 05:06:42;;;;;;;13.00;3.13;;;5.10;86.60;;;;;;5027171;28;20033;-84
2021/12/08 05:09:20;;;;;;;11.90;2.65;;;5.00;86.70;;;;;;5047270;28;20056;-79
2021/12/08 05:11:51;;;;;;;11.95;2.72;;;5.00;86.70;;;;;;5035475;28;20052;-83
2021/12/08 05:14:23;;;;;;;11.55;2.35;;;4.90;86.90;;;;;;5029204;28;20149;-86
2021/12/08 05:16:54;;;;;;;13.13;2.58;;;4.90;86.70;;;;;;5029243;28;20058;-84
2021/12/08 05:19:27;;;;;;;11.13;2.22;;;4.90;86.80;;;;;;5039091;28;20033;-88
2021/12/08 05:22:17;;;;;;;12.60;2.83;;;4.80;86.90;;;;;;5025459;28;20097;-84
2021/12/08 05:24:47;;;;;;;9.82;2.50;;;4.80;87.00;;;;;;5036593;28;20050;-82
2021/12/08 05:27:18;;;;;;;10.40;2.83;;;4.80;87.00;;;;;;5039514;28;20080;-81
2021/12/08 05:29:59;;;;;;;10.02;2.33;;;4.80;87.00;;;;;;5047549;28;20069;-78
2021/12/08 05:32:25;;;;;;;11.43;2.60;;;4.80;87.00;;;;;;5043890;28;20028;-78
2021/12/08 05:34:51;;;;;;;11.98;2.67;;;4.70;87.00;;;;;;5046495;28;20100;-80
2021/12/08 05:37:19;;;;;;;13.52;2.58;;;4.70;87.20;;;;;;5043639;28;20113;-83
2021/12/08 05:39:45;;;;;;;10.40;2.17;;;4.70;87.30;;;;;;5052433;28;20033;-84
2021/12/08 05:42:17;;;;;;;8.95;2.90;;;4.70;87.40;;;;;;5045520;28;20046;-78
2021/12/08 05:44:44;;;;;;;9.50;2.53;;;4.60;87.40;;;;;;5046735;28;20097;-81
2021/12/08 05:47:14;;;;;;;12.85;3.30;;;4.70;87.50;;;;;;5045053;28;20879;-83
2021/12/08 05:49:40;;;;;;;12.40;2.67;;;4.70;87.50;;;;;;5044494;28;20832;-85
2021/12/08 05:52:07;;;;;;;8.68;2.50;;;4.90;87.20;;;;;;5041461;28;20112;-82
2021/12/08 05:54:39;;;;;;;7.93;2.40;;;4.90;87.00;;;;;;5045731;28;20089;-82
2021/12/08 05:57:10;;;;;;;12.63;2.38;;;5.00;86.70;;;;;;5044561;28;20057;-84
2021/12/08 05:59:36;;;;;;;12.13;2.72;;;5.10;86.50;;;;;;5031898;28;20045;-86
2021/12/08 06:02:25;;;;;;;20.98;3.00;;;5.10;86.60;;;;;;5021512;28;20044;-85
2021/12/08 06:04:51;;;;;;;15.52;2.38;;;5.10;86.50;;;;;;5030296;28;20072;-84
2021/12/08 06:07:22;;;;;;;9.50;2.20;;;5.10;86.40;;;;;;5043240;28;20716;-82
2021/12/08 06:09:55;;;;;;;10.80;2.50;;;5.10;86.30;;;;;;5028102;28;20030;-78
2021/12/08 06:12:21;;;;;;;11.82;2.40;;;5.10;86.10;;;;;;5022562;28;20060;-78
2021/12/08 06:14:53;;;;;;;9.82;2.45;;;5.10;86.20;;;;;;5027375;28;20037;-84
2021/12/08 06:17:19;;;;;;;11.98;2.40;;;5.10;86.30;;;;;;5023744;28;20137;-84
2021/12/08 06:19:46;;;;;;;7.53;2.25;;;5.10;86.30;;;;;;5026715;28;20060;-81
2021/12/08 06:22:15;;;;;;;10.82;2.85;;;5.00;86.30;;;;;;5021600;28;20054;-80
2021/12/08 06:24:40;;;;;;;10.52;2.28;;;5.00;86.40;;;;;;5021707;28;20038;-83
2021/12/08 06:27:07;;;;;;;8.63;2.63;;;4.90;86.50;;;;;;5023348;28;20049;-84
2021/12/08 06:29:33;;;;;;;14.05;2.10;;;5.00;86.50;;;;;;5026165;28;20037;-79
2021/12/08 06:32:01;;;;;;;11.65;2.53;;;5.00;86.50;;;;;;5040018;28;20044;-80
2021/12/08 06:34:28;;;;;;;7.47;2.20;;;5.00;86.60;;;;;;5043440;28;20098;-80
2021/12/08 06:37:01;;;;;;;10.85;2.30;;;4.90;86.60;;;;;;5038337;28;20048;-80
2021/12/08 06:39:36;;;;;;;17.37;3.60;;;4.90;86.60;;;;;;5039383;28;20121;-81
2021/12/08 06:42:07;;;;;;;12.07;3.10;;;4.90;86.70;;;;;;5048068;28;20047;-76
2021/12/08 06:44:39;;;;;;;10.20;2.60;;;4.90;86.80;;;;;;5039085;28;20043;-77
2021/12/08 06:47:05;;;;;;;10.85;3.28;;;4.80;86.80;;;;;;5045543;28;20056;-78
2021/12/08 06:49:31;;;;;;;11.43;2.42;;;4.80;86.80;;;;;;5045280;28;20045;-77
2021/12/08 06:52:09;;;;;;;8.85;2.53;;;4.80;86.80;;;;;;5047725;28;20425;-78
2021/12/08 06:55:06;;;;;;;6.50;1.90;;;4.80;86.90;;;;;;5044900;28;20037;-80
2021/12/08 06:57:38;;;;;;;8.98;2.53;;;4.70;87.00;;;;;;5035989;28;20053;-82
2021/12/08 07:00:21;;;;;;;8.23;2.42;;;4.70;87.10;;;;;;5042071;28;20040;-83
2021/12/08 07:03:06;;;;;;;8.13;2.20;;;4.70;87.10;;;;;;5043144;28;20052;-81
2021/12/08 07:06:03;;;;;;;9.77;2.35;;;4.60;87.10;;;;;;5035989;28;20087;-84
2021/12/08 07:08:20;;;;;;;9.48;2.50;;;4.60;87.30;;;;;;5045918;28;20089;-77
2021/12/08 07:10:49;;;;;;;11.60;2.45;;;4.60;87.10;;;;;;5045351;28;20056;-78
2021/12/08 07:13:20;;;;;;;11.55;2.92;;;4.60;87.10;;;;;;5044179;28;20049;-83
2021/12/08 07:15:56;;;;;;;12.63;2.28;;;4.60;87.10;;;;;;5042932;28;20033;-74
2021/12/08 07:18:39;;;;;;;8.98;2.25;;;4.60;87.30;;;;;;5040150;28;20041;-74
2021/12/08 07:21:06;;;;;;;9.45;2.35;;;4.60;87.10;;;;;;5043635;28;20033;-74
2021/12/08 07:23:40;;;;;;;11.18;2.65;;;4.60;87.10;;;;;;5039785;28;20064;-75
2021/12/08 07:26:11;;;;;;;13.35;3.35;;;4.60;87.20;;;;;;5039725;28;20080;-73
2021/12/08 07:28:40;;;;;;;9.50;3.65;;;4.60;87.10;;;;;;5039421;28;20067;-74
2021/12/08 07:31:15;;;;;;;12.82;3.00;;;4.60;87.10;;;;;;5038263;28;20022;-74
2021/12/08 07:33:43;;;;;;;8.45;3.20;;;4.60;87.00;;;;;;5039439;28;20048;-77
2021/12/08 07:36:14;;;;;;;9.88;2.60;;;4.60;87.30;;;;;;5041399;28;20041;-75
2021/12/08 07:38:40;;;;;;;7.75;2.50;;;4.60;87.30;;;;;;5039847;28;20106;-74
2021/12/08 07:41:19;;;;;;;11.30;2.72;;;4.60;87.40;;;;;;5039207;28;20097;-74
2021/12/08 07:43:52;;;;;;;9.70;2.88;;;4.70;87.40;;;;;;5041732;28;20056;-74
2021/12/08 07:46:29;;;;;;;9.43;2.83;;;4.70;87.20;;;;;;5039994;28;20064;-75
2021/12/08 07:49:07;;;;;;;8.73;3.17;;;4.80;87.20;;;;;;5041748;28;20034;-77
2021/12/08 07:51:53;;;;;;;12.60;3.08;;;4.80;86.90;;;;;;5043144;28;20058;-75
2021/12/08 07:54:20;;;;;;;9.00;3.33;;;4.90;86.80;;;;;;5048606;28;20125;-77
2021/12/08 07:56:51;;;;;;;14.90;2.83;;;4.90;86.80;;;;;;5042064;28;20046;-76
2021/12/08 07:59:18;;;;;;;7.53;2.92;;;4.90;86.70;;;;;;5035142;28;20045;-74
2021/12/08 08:01:48;;;;;;;14.77;3.63;;;4.90;86.60;;;;;;5041604;28;20030;-73
2021/12/08 08:04:17;;;;;;;9.23;2.50;;;4.90;86.50;;;;;;5033984;28;20029;-75
2021/12/08 08:06:48;;;;;;;8.32;2.75;;;5.00;86.30;;;;;;5040842;28;20042;-73
2021/12/08 08:09:22;;;;;;;8.13;2.22;;;5.00;86.30;;;;;;5040726;28;20303;-73
2021/12/08 08:11:55;;;;;;;7.90;2.15;;;5.00;86.10;;;;;;5042433;28;20041;-75
2021/12/08 08:14:32;;;;;;;11.27;3.17;;;5.10;86.00;;;;;;5042813;28;20041;-73
2021/12/08 08:16:59;;;;;;;9.27;2.70;;;5.10;86.00;;;;;;5044431;28;20041;-75
2021/12/08 08:19:29;;;;;;;9.75;2.97;;;5.10;85.90;;;;;;5034508;28;20038;-73
2021/12/08 08:22:07;;;;;;;14.57;3.35;;;5.10;85.80;;;;;;5046504;28;20118;-72
2021/12/08 08:24:34;;;;;;;7.95;2.70;;;5.10;85.80;;;;;;5044458;28;20060;-73
2021/12/08 08:27:04;;;;;;;12.27;3.10;;;5.10;85.70;;;;;;5045350;28;20476;-73
2021/12/08 08:29:30;;;;;;;10.40;2.53;;;5.10;85.80;;;;;;5031826;28;20102;-72
2021/12/08 08:32:05;;;;;;;11.43;2.83;;;5.10;85.70;;;;;;5025749;28;20037;-72
2021/12/08 08:34:36;;;;;;;10.00;3.38;;;5.10;85.50;;;;;;5035997;28;20126;-77
2021/12/08 08:37:05;;;;;;;9.65;2.83;;;5.20;85.30;;;;;;5044192;28;20049;-76
2021/12/08 08:39:35;;;;;;;9.55;3.03;;;5.20;85.30;;;;;;5037258;28;20053;-75
2021/12/08 08:42:09;;;;;;;8.77;2.50;;;5.20;85.20;;;;;;5036674;28;20033;-73
2021/12/08 08:44:38;;;;;;;8.48;2.78;;;5.30;85.30;;;;;;5043610;28;20061;-72
2021/12/08 08:47:11;;;;;;;8.90;2.65;;;5.40;85.20;;;;;;5039032;28;20058;-74
2021/12/08 08:49:39;;;;;;;9.77;3.33;;;5.40;84.90;;;;;;5042233;28;20072;-73
2021/12/08 08:52:22;;;;;;;10.60;2.30;;;5.60;84.70;;;;;;5040425;28;20056;-75
2021/12/08 08:54:52;;;;;;;8.00;2.03;;;5.60;84.80;;;;;;5044130;28;20060;-76
2021/12/08 08:57:28;;;;;;;11.57;3.20;;;5.60;84.30;;;;;;5042350;28;20046;-73
2021/12/08 09:00:10;;;;;;;6.25;2.58;;;5.70;83.80;;;;;;5040397;28;20042;-72
2021/12/08 09:02:38;;;;;;;6.93;2.75;;;5.80;83.80;;;;;;5036612;28;20094;-76
2021/12/08 09:05:18;;;;;;;10.80;3.00;;;5.90;83.60;;;;;;5042150;28;20064;-75
2021/12/08 09:07:50;;;;;;;8.07;2.80;;;5.90;83.00;;;;;;5045072;28;20109;-74
2021/12/08 09:10:27;;;;;;;10.50;2.75;;;5.90;82.80;;;;;;5038743;28;20033;-74
2021/12/08 09:12:59;;;;;;;7.03;2.58;;;6.00;82.90;;;;;;5041678;28;20080;-74
2021/12/08 09:15:27;;;;;;;9.45;2.60;;;6.10;82.40;;;;;;5038242;28;20698;-73
2021/12/08 09:18:12;;;;;;;10.05;2.88;;;6.10;82.20;;;;;;5032627;28;20309;-73
2021/12/08 09:20:45;;;;;;;9.13;3.00;;;6.10;82.20;;;;;;5043045;28;20033;-75
2021/12/08 09:23:17;;;;;;;9.55;2.60;;;6.20;82.10;;;;;;5042966;28;20045;-72
2021/12/08 09:25:51;;;;;;;14.48;3.10;;;6.20;82.00;;;;;;5040035;28;20494;-74
2021/12/08 09:28:29;;;;;;;8.50;2.63;;;6.40;81.60;;;;;;5042474;28;20034;-74
2021/12/08 09:31:08;;;;;;;10.27;2.65;;;6.50;81.60;;;;;;5044903;28;20065;-75
2021/12/08 09:33:44;;;;;;;9.68;2.72;;;6.50;81.20;;;;;;5042509;28;20038;-76
2021/12/08 09:36:14;;;;;;;9.52;2.80;;;6.60;81.20;;;;;;5043379;28;20081;-76
2021/12/08 09:38:47;;;;;;;9.90;2.33;;;6.70;80.70;;;;;;5041677;28;20088;-74
2021/12/08 09:41:19;;;;;;;8.15;2.30;;;6.80;80.40;;;;;;5044684;28;20041;-74
2021/12/08 09:44:07;;;;;;;7.40;2.90;;;6.90;79.90;;;;;;5043916;28;20038;-75
2021/12/08 09:46:38;;;;;;;6.15;2.33;;;7.00;79.80;;;;;;5042371;28;20037;-74
2021/12/08 09:49:05;;;;;;;8.05;2.30;;;6.80;79.80;;;;;;5043037;28;20045;-75
2021/12/08 09:51:32;;;;;;;10.38;2.60;;;6.70;80.10;;;;;;5041549;28;20043;-76
2021/12/08 09:53:58;;;;;;;9.00;2.63;;;6.60;80.80;;;;;;5043329;28;20440;-78
2021/12/08 09:56:25;;;;;;;8.57;2.50;;;6.60;80.80;;;;;;5041724;28;20055;-74
2021/12/08 09:58:53;;;;;;;13.52;3.45;;;6.60;81.20;;;;;;5036666;28;20046;-76
2021/12/08 10:01:21;;;;;;;11.32;2.30;;;6.60;81.00;;;;;;5024086;28;20034;-75
2021/12/08 10:03:48;;;;;;;11.95;3.10;;;6.70;80.60;;;;;;5037095;28;20041;-75
2021/12/08 10:06:14;;;;;;;12.48;3.22;;;6.60;80.60;;;;;;5040821;28;20049;-73
2021/12/08 10:08:45;;;;;;;10.50;3.13;;;6.60;80.80;;;;;;5040986;28;20137;-76
2021/12/08 10:11:11;;;;;;;9.90;2.63;;;6.60;80.80;;;;;;5037475;28;20046;-74
2021/12/08 10:13:37;;;;;;;11.00;2.78;;;6.50;80.80;;;;;;5037634;28;20041;-75
2021/12/08 10:16:03;;;;;;;7.85;2.33;;;6.40;81.40;;;;;;5044151;28;20056;-75
2021/12/08 10:18:29;;;;;;;9.30;3.20;;;6.30;81.80;;;;;;5043698;28;20034;-76
2021/12/08 10:20:56;;;;;;;8.85;2.30;;;6.20;82.00;;;;;;5042898;28;20053;-78
2021/12/08 10:23:33;;;;;;;10.55;2.63;;;6.30;82.10;;;;;;5041787;28;20037;-75
2021/12/08 10:26:06;;;;;;;8.48;3.15;;;6.60;81.40;;;;;;5040007;28;20064;-74
2021/12/08 10:28:38;;;;;;;9.48;2.97;;;6.60;81.10;;;;;;5037245;28;20034;-74
2021/12/08 10:31:30;;;;;;;11.68;2.85;;;6.80;80.40;;;;;;5035766;28;20041;-74
2021/12/08 10:34:10;;;;;;;11.20;2.50;;;6.80;80.50;;;;;;5042682;28;20068;-74
2021/12/08 10:39:11;;;;;;;10.18;2.58;;;7.00;80.10;;;;;;5038427;28;20029;-75
2021/12/08 10:41:54;;;;;;;10.48;2.60;;;6.90;80.20;;;;;;5037221;28;20097;-74
2021/12/08 10:44:55;;;;;;;7.18;2.50;;;6.90;79.70;;;;;;5041603;28;20030;-74
2021/12/08 10:47:27;;;;;;;9.35;2.60;;;6.90;79.70;;;;;;5039079;28;20067;-75
2021/12/08 10:55:24;;;;;;;9.35;2.65;;;6.80;80.10;;;;;;5039853;28;20052;-73
2021/12/08 10:57:53;;;;;;;10.18;2.60;;;6.90;80.00;;;;;;5041694;28;20101;-74
2021/12/08 11:00:30;;;;;;;7.63;2.70;;;6.90;79.70;;;;;;5020468;28;20057;-74
2021/12/08 11:03:08;;;;;;;10.73;2.65;;;6.90;79.80;;;;;;5017973;28;20030;-75
2021/12/08 11:05:37;;;;;;;7.45;2.42;;;7.00;80.10;;;;;;5040843;28;20034;-75
2021/12/08 11:08:02;;;;;;;10.00;2.75;;;7.00;79.70;;;;;;5041125;28;20037;-74
2021/12/08 11:10:35;;;;;;;10.40;3.53;;;6.90;79.80;;;;;;5043423;28;20101;-74
2021/12/08 11:13:02;;;;;;;9.52;2.88;;;6.90;80.40;;;;;;5039865;28;20045;-74
2021/12/08 11:15:30;;;;;;;7.85;3.05;;;7.10;79.80;;;;;;5044304;28;20037;-78
2021/12/08 11:18:18;;;;;;;9.27;3.20;;;7.10;79.40;;;;;;5040327;28;20034;-76
2021/12/08 11:20:59;;;;;;;10.50;3.15;;;7.10;79.30;;;;;;5041026;28;20038;-75
2021/12/08 11:23:42;;;;;;;10.60;2.92;;;7.10;79.40;;;;;;5038256;28;20029;-74
2021/12/08 11:26:19;;;;;;;9.15;2.47;;;7.10;79.70;;;;;;5039011;28;20037;-74
2021/12/08 11:29:10;;;;;;;10.65;3.97;;;7.10;79.40;;;;;;5034699;28;20068;-74
2021/12/08 11:31:40;;;;;;;7.43;2.33;;;7.10;79.40;;;;;;5037535;28;20081;-75
2021/12/08 11:34:17;;;;;;;7.80;2.92;;;7.20;79.10;;;;;;5038569;28;20041;-74
2021/12/08 11:36:45;;;;;;;12.32;3.28;;;7.20;79.30;;;;;;5036983;28;20080;-74
2021/12/08 11:39:35;;;;;;;8.77;2.78;;;7.20;79.40;;;;;;5041406;28;20100;-73
2021/12/08 11:42:12;;;;;;;8.88;2.88;;;7.30;79.00;;;;;;5029698;28;20468;-73
2021/12/08 11:44:41;;;;;;;6.25;2.80;;;7.30;79.00;;;;;;5042008;28;20061;-74
2021/12/08 11:47:12;;;;;;;10.88;3.20;;;7.20;78.20;;;;;;5039271;28;20056;-74
2021/12/08 11:49:59;;;;;;;7.63;2.85;;;7.20;78.60;;;;;;5039031;28;20046;-72
2021/12/08 11:52:32;;;;;;;7.80;2.50;;;7.30;78.50;;;;;;5045169;28;20030;-75
2021/12/08 11:55:06;;;;;;;6.90;2.60;;;7.30;78.00;;;;;;5045671;28;20048;-76
2021/12/08 11:57:44;;;;;;;7.78;2.75;;;7.30;77.90;;;;;;5043956;28;20041;-74
2021/12/08 12:00:19;;;;;;;6.88;2.63;;;7.40;78.00;;;;;;5044464;28;20033;-74
2021/12/08 12:02:53;;;;;;;8.60;2.70;;;7.40;78.10;;;;;;5043490;28;20133;-75
2021/12/08 12:05:22;;;;;;;8.77;3.03;;;7.30;77.90;;;;;;5043747;28;20030;-74
2021/12/08 12:07:49;;;;;;;7.47;2.35;;;7.50;77.50;;;;;;5045427;28;20042;-74
2021/12/08 12:10:20;;;;;;;6.90;2.55;;;7.50;77.40;;;;;;5045065;28;21062;-75
2021/12/08 12:12:47;;;;;;;6.10;2.53;;;7.50;77.40;;;;;;5046087;28;20061;-74
2021/12/08 12:15:17;;;;;;;7.90;2.60;;;7.60;77.30;;;;;;5044746;28;20120;-74
2021/12/08 12:17:45;;;;;;;14.10;2.95;;;7.60;77.70;;;;;;5040018;28;20064;-77
2021/12/08 12:20:19;;;;;;;11.65;2.83;;;7.70;77.00;;;;;;5038409;28;20049;-74
2021/12/08 12:22:53;;;;;;;8.50;2.67;;;7.70;77.30;;;;;;5041973;28;20057;-75
2021/12/08 12:25:37;;;;;;;11.43;2.90;;;7.60;77.20;;;;;;5042711;28;20304;-75
2021/12/08 12:28:14;;;;;;;8.23;3.28;;;7.50;77.40;;;;;;5039873;28;20038;-75
2021/12/08 12:31:14;;;;;;;5.97;2.80;;;7.60;77.60;;;;;;5043398;28;20042;-75
2021/12/08 12:33:44;;;;;;;10.70;2.75;;;7.60;77.20;;;;;;5045704;28;20093;-75
2021/12/08 12:36:20;;;;;;;7.70;2.70;;;7.60;77.30;;;;;;5041935;28;20025;-74
2021/12/08 12:38:47;;;;;;;8.80;3.15;;;7.60;77.60;;;;;;5044442;28;20103;-73
2021/12/08 12:41:42;;;;;;;8.23;2.88;;;7.60;77.90;;;;;;5044658;28;20026;-72
2021/12/08 12:44:22;;;;;;;7.80;2.80;;;7.70;77.60;;;;;;5036074;28;20037;-74
2021/12/08 12:47:12;;;;;;;8.95;2.65;;;7.60;77.50;;;;;;5042220;28;20060;-73
2021/12/08 12:49:41;;;;;;;8.82;2.70;;;7.70;77.30;;;;;;5043638;28;20045;-73
2021/12/08 12:52:10;;;;;;;9.85;2.80;;;7.70;76.90;;;;;;5041421;28;20852;-73
2021/12/08 12:54:37;;;;;;;8.02;3.17;;;7.70;77.20;;;;;;5041059;28;20856;-73
2021/12/08 12:57:06;;;;;;;5.70;3.03;;;7.60;77.90;;;;;;5041612;28;20048;-74
2021/12/08 12:59:58;;;;;;;7.38;3.33;;;7.70;77.50;;;;;;5041683;28;20037;-75
2021/12/08 13:02:33;;;;;;;9.13;3.20;;;7.60;77.70;;;;;;5039952;28;20071;-74
2021/12/08 13:05:08;;;;;;;8.63;4.05;;;7.60;78.00;;;;;;5043411;28;20044;-73
2021/12/08 13:07:42;;;;;;;12.52;5.15;;;7.60;78.30;;;;;;5044502;28;20693;-75
2021/12/08 13:10:19;;;;;;;7.00;3.65;;;7.50;78.40;;;;;;5043061;28;20040;-76
2021/12/08 13:12:46;;;;;;;7.05;2.83;;;7.50;78.60;;;;;;5037044;28;20041;-76
2021/12/08 13:15:13;;;;;;;9.18;4.13;;;7.50;78.60;;;;;;5042797;28;20045;-76
2021/12/08 13:18:03;;;;;;;8.57;3.80;;;7.40;78.80;;;;;;5044534;28;20103;-77
2021/12/08 13:20:34;;;;;;;5.53;2.97;;;7.40;79.10;;;;;;5043297;28;20029;-75
2021/12/08 13:23:06;;;;;;;8.82;3.45;;;7.40;79.30;;;;;;5041880;28;20033;-77
2021/12/08 13:28:31;;;;;;;8.77;3.53;;;7.40;79.00;;;;;;5039707;28;20041;-75
2021/12/08 13:30:59;;;;;;;9.02;3.25;;;7.30;79.30;;;;;;5022453;28;20038;-75
2021/12/08 13:33:34;;;;;;;10.45;3.67;;;7.30;79.50;;;;;;5038516;28;20042;-74
2021/12/08 13:36:21;;;;;;;7.97;3.70;;;7.40;79.60;;;;;;5036263;28;20053;-76
2021/12/08 13:39:06;;;;;;;7.75;3.55;;;7.30;79.40;;;;;;5015794;28;20064;-77
2021/12/08 13:41:35;;;;;;;9.63;3.45;;;7.30;79.50;;;;;;5024211;28;20041;-76
2021/12/08 13:44:26;;;;;;;10.55;3.25;;;7.20;79.80;;;;;;5018231;28;20039;-74
2021/12/08 13:46:56;;;;;;;9.52;3.20;;;7.20;79.80;;;;;;5017016;28;20056;-73
2021/12/08 13:49:28;;;;;;;10.25;3.72;;;7.20;80.00;;;;;;5021372;28;20049;-75
2021/12/08 13:52:08;;;;;;;6.75;3.28;;;7.10;80.10;;;;;;5022906;28;20054;-73
2021/12/08 13:54:40;;;;;;;11.88;4.47;;;7.10;80.30;;;;;;5016935;28;20046;-76
2021/12/08 13:57:26;;;;;;;8.95;3.53;;;7.10;80.50;;;;;;5024041;28;20112;-76
2021/12/08 13:59:59;;;;;;;11.85;3.40;;;7.10;80.40;;;;;;5020094;28;20042;-76
2021/12/08 14:02:53;;;;;;;10.85;3.25;;;7.10;80.70;;;;;;5021380;28;20038;-76